createdAt,value
2019-01-22T00:00:54.471Z,17.98
2019-01-22T00:15:51.535Z,15.58
2019-01-22T00:30:51.640Z,15.23
2019-01-22T00:45:51.390Z,15.53
2019-01-22T01:00:50.876Z,18.30
2019-01-22T01:15:51.354Z,18.42
2019-01-22T01:30:50.706Z,16.93
2019-01-22T01:45:51.085Z,17.12
2019-01-22T02:00:53.491Z,16.32
2019-01-22T04:15:53.608Z,10.90
2019-01-22T09:45:51.698Z,8.68
2019-01-22T10:00:50.999Z,8.43
2019-01-22T10:15:51.453Z,9.20
2019-01-22T10:30:51.399Z,9.20
2019-01-22T10:45:51.772Z,9.50
2019-01-22T11:00:50.275Z,8.48
2019-01-22T11:15:53.564Z,10.50
2019-01-22T11:30:51.475Z,9.88
2019-01-22T11:45:50.915Z,10.78
2019-01-22T12:00:57.424Z,9.05
2019-01-22T12:15:50.794Z,8.83
2019-01-22T12:30:50.716Z,10.03
2019-01-22T12:45:51.145Z,9.13
2019-01-22T13:00:50.927Z,9.35
2019-01-22T13:15:50.930Z,9.75
2019-01-22T13:30:50.847Z,9.70
2019-01-22T13:45:51.151Z,9.95
2019-01-22T14:15:51.190Z,9.40
2019-01-22T14:30:51.084Z,9.68
2019-01-22T14:45:51.612Z,11.63
2019-01-22T15:00:53.030Z,12.23
2019-01-22T15:15:51.283Z,8.93
2019-01-22T15:30:51.195Z,9.58
2019-01-22T15:45:50.686Z,8.80
2019-01-22T16:00:51.101Z,10.10
2019-01-22T16:15:51.451Z,10.38
2019-01-22T16:30:53.193Z,12.20
2019-01-22T16:45:51.180Z,11.10
2019-01-22T17:00:51.001Z,12.80
2019-01-22T17:15:51.347Z,14.00
2019-01-22T17:30:50.687Z,14.98
2019-01-22T17:45:54.169Z,14.35
2019-01-22T18:00:57.241Z,15.50
2019-01-22T18:15:55.792Z,15.58
2019-01-22T18:30:54.348Z,15.08
2019-01-22T18:45:51.282Z,15.48
2019-01-22T19:00:51.752Z,12.70
2019-01-22T19:15:53.309Z,15.05
2019-01-22T19:30:53.705Z,14.38
2019-01-22T19:45:55.226Z,13.45
2019-01-22T20:00:52.911Z,14.05
2019-01-22T20:15:53.428Z,12.13
2019-01-22T20:30:53.387Z,11.95
2019-01-22T20:45:52.764Z,10.18
2019-01-22T21:00:50.915Z,13.95
2019-01-22T21:15:50.707Z,11.97
2019-01-22T21:30:53.637Z,11.22
2019-01-22T21:45:50.955Z,13.10
2019-01-22T22:00:50.951Z,11.78
2019-01-22T22:15:51.592Z,10.35
2019-01-22T22:30:50.761Z,9.35
2019-01-22T22:45:51.133Z,10.72
2019-01-22T23:15:51.158Z,9.03
2019-01-22T23:30:50.947Z,8.00
2019-01-22T23:45:51.397Z,11.30
